createdAt,value
2024-03-24T14:48:35.126Z,12.8
2024-03-24T14:59:23.977Z,12.8
2024-03-24T15:09:35.829Z,12.9
2024-03-24T15:19:47.191Z,12.9
2024-03-24T15:30:05.687Z,13
2024-03-24T15:40:19.503Z,13.1
2024-03-24T15:50:33.118Z,12.9
2024-03-24T16:00:47.526Z,12.8
2024-03-24T16:11:03.104Z,12.7
2024-03-24T16:21:18.610Z,12.7
2024-03-24T16:31:32.056Z,12.7
2024-03-24T16:41:45.986Z,12.7
2024-03-24T16:51:58.742Z,12.6
2024-03-24T17:02:12.457Z,12.6
2024-03-24T17:12:25.078Z,12.6
2024-03-24T17:22:38.375Z,12.6
2024-03-24T17:32:51.745Z,12.6
2024-03-24T17:43:05.126Z,12.5
2024-03-24T17:53:18.062Z,12.5
2024-03-24T18:03:31.940Z,12.5
2024-03-24T18:13:45.071Z,12.5
2024-03-24T18:23:58.680Z,12.5
2024-03-24T18:34:13.135Z,12.5
2024-03-24T18:44:31.025Z,12.5
2024-03-24T18:54:45.351Z,12.5
2024-03-24T19:04:59.881Z,12.5
2024-03-24T19:15:14.353Z,12.5
2024-03-24T19:25:31.169Z,12.5
2024-03-24T19:36:09.575Z,12.5
2024-03-24T19:46:22.940Z,12.4
2024-03-24T19:56:37.194Z,12.4
2024-03-24T20:06:50.662Z,12.4
2024-03-24T20:17:04.173Z,12.4
2024-03-24T20:27:17.146Z,12.4
2024-03-24T20:37:30.257Z,12.4
2024-03-24T20:47:43.611Z,12.4
2024-03-24T20:57:56.503Z,12.4
2024-03-24T21:08:10.423Z,12.4
2024-03-24T21:18:24.225Z,12.3
2024-03-24T21:28:37.468Z,12.3
2024-03-24T21:38:50.668Z,12.3
2024-03-24T21:49:03.826Z,12.3
2024-03-24T21:59:18.307Z,12.3
2024-03-24T22:09:32.752Z,12.3
2024-03-24T22:19:46.454Z,12.3
2024-03-24T22:30:00.311Z,12.3
2024-03-24T22:40:13.096Z,12.3
